sensor_id;sensor_type;location;lat;lon;timestamp;temperature;humidity
79356;SHT31;68825;51.978;5.654;2024-03-29T00:01:06;11.6;55.3
79356;SHT31;68825;51.978;5.654;2024-03-29T00:03:35;11.6;55.6
79356;SHT31;68825;51.978;5.654;2024-03-29T00:06:04;11.6;55.3
79356;SHT31;68825;51.978;5.654;2024-03-29T00:08:32;11.6;55.6
79356;SHT31;68825;51.978;5.654;2024-03-29T00:11:01;11.6;55.8
79356;SHT31;68825;51.978;5.654;2024-03-29T00:13:30;11.5;55.4
79356;SHT31;68825;51.978;5.654;2024-03-29T00:15:59;11.5;55.5
79356;SHT31;68825;51.978;5.654;2024-03-29T00:18:27;11.5;55.7
79356;SHT31;68825;51.978;5.654;2024-03-29T00:20:56;11.5;55.8
79356;SHT31;68825;51.978;5.654;2024-03-29T00:23:24;11.5;55.8
79356;SHT31;68825;51.978;5.654;2024-03-29T00:25:56;11.4;55.8
79356;SHT31;68825;51.978;5.654;2024-03-29T00:28:25;11.4;56.0
79356;SHT31;68825;51.978;5.654;2024-03-29T00:30:53;11.4;56.0
79356;SHT31;68825;51.978;5.654;2024-03-29T00:33:22;11.4;56.2
79356;SHT31;68825;51.978;5.654;2024-03-29T00:35:51;11.4;56.0
79356;SHT31;68825;51.978;5.654;2024-03-29T00:38:20;11.4;56.2
79356;SHT31;68825;51.978;5.654;2024-03-29T00:40:49;11.4;56.3
79356;SHT31;68825;51.978;5.654;2024-03-29T00:43:17;11.4;56.2
79356;SHT31;68825;51.978;5.654;2024-03-29T00:45:48;11.4;56.2
79356;SHT31;68825;51.978;5.654;2024-03-29T00:48:17;11.4;56.3
79356;SHT31;68825;51.978;5.654;2024-03-29T00:50:49;11.4;56.0
79356;SHT31;68825;51.978;5.654;2024-03-29T00:53:17;11.4;56.3
79356;SHT31;68825;51.978;5.654;2024-03-29T00:55:46;11.4;56.5
79356;SHT31;68825;51.978;5.654;2024-03-29T00:58:15;11.4;56.0
79356;SHT31;68825;51.978;5.654;2024-03-29T01:00:45;11.4;56.4
79356;SHT31;68825;51.978;5.654;2024-03-29T01:03:14;11.4;56.1
79356;SHT31;68825;51.978;5.654;2024-03-29T01:05:43;11.4;56.4
79356;SHT31;68825;51.978;5.654;2024-03-29T01:08:12;11.4;56.1
79356;SHT31;68825;51.978;5.654;2024-03-29T01:10:40;11.4;55.9
79356;SHT31;68825;51.978;5.654;2024-03-29T01:13:09;11.4;56.0
79356;SHT31;68825;51.978;5.654;2024-03-29T01:15:37;11.4;56.0
79356;SHT31;68825;51.978;5.654;2024-03-29T01:18:06;11.3;56.2
79356;SHT31;68825;51.978;5.654;2024-03-29T01:20:37;11.3;56.0
79356;SHT31;68825;51.978;5.654;2024-03-29T01:23:05;11.3;55.8
79356;SHT31;68825;51.978;5.654;2024-03-29T01:25:35;11.3;55.7
79356;SHT31;68825;51.978;5.654;2024-03-29T01:28:03;11.3;56.4
79356;SHT31;68825;51.978;5.654;2024-03-29T01:30:32;11.3;56.4
79356;SHT31;68825;51.978;5.654;2024-03-29T01:33:01;11.2;56.4
79356;SHT31;68825;51.978;5.654;2024-03-29T01:35:29;11.2;56.3
79356;SHT31;68825;51.978;5.654;2024-03-29T01:37:58;11.2;56.5
79356;SHT31;68825;51.978;5.654;2024-03-29T01:40:26;11.2;56.3
79356;SHT31;68825;51.978;5.654;2024-03-29T01:42:55;11.2;56.2
79356;SHT31;68825;51.978;5.654;2024-03-29T01:45:23;11.2;56.2
79356;SHT31;68825;51.978;5.654;2024-03-29T01:47:53;11.2;56.0
79356;SHT31;68825;51.978;5.654;2024-03-29T01:50:22;11.2;56.2
79356;SHT31;68825;51.978;5.654;2024-03-29T01:52:51;11.1;56.0
79356;SHT31;68825;51.978;5.654;2024-03-29T01:55:20;11.1;56.3
79356;SHT31;68825;51.978;5.654;2024-03-29T01:57:49;11.1;56.4
79356;SHT31;68825;51.978;5.654;2024-03-29T02:00:20;11.1;56.7
79356;SHT31;68825;51.978;5.654;2024-03-29T02:02:49;11.1;56.4
79356;SHT31;68825;51.978;5.654;2024-03-29T02:05:20;11.1;56.8
79356;SHT31;68825;51.978;5.654;2024-03-29T02:07:49;11.1;56.7
79356;SHT31;68825;51.978;5.654;2024-03-29T02:10:18;11.0;56.4
79356;SHT31;68825;51.978;5.654;2024-03-29T02:12:46;11.0;56.6
79356;SHT31;68825;51.978;5.654;2024-03-29T02:15:16;11.0;56.8
79356;SHT31;68825;51.978;5.654;2024-03-29T02:17:44;10.9;56.9
79356;SHT31;68825;51.978;5.654;2024-03-29T02:20:13;10.9;57.2
79356;SHT31;68825;51.978;5.654;2024-03-29T02:22:50;10.9;57.2
79356;SHT31;68825;51.978;5.654;2024-03-29T02:25:21;10.9;57.2
79356;SHT31;68825;51.978;5.654;2024-03-29T02:27:50;10.9;57.5
79356;SHT31;68825;51.978;5.654;2024-03-29T02:30:19;10.9;57.4
79356;SHT31;68825;51.978;5.654;2024-03-29T02:32:48;10.9;57.7
79356;SHT31;68825;51.978;5.654;2024-03-29T02:35:16;10.9;57.7
79356;SHT31;68825;51.978;5.654;2024-03-29T02:37:45;10.9;57.7
79356;SHT31;68825;51.978;5.654;2024-03-29T02:40:14;10.9;57.7
79356;SHT31;68825;51.978;5.654;2024-03-29T02:42:42;10.9;58.2
79356;SHT31;68825;51.978;5.654;2024-03-29T02:45:11;10.9;57.8
79356;SHT31;68825;51.978;5.654;2024-03-29T02:47:40;10.9;57.8
79356;SHT31;68825;51.978;5.654;2024-03-29T02:50:10;10.9;57.6
79356;SHT31;68825;51.978;5.654;2024-03-29T02:52:39;10.9;57.6
79356;SHT31;68825;51.978;5.654;2024-03-29T02:55:09;10.9;57.8
79356;SHT31;68825;51.978;5.654;2024-03-29T02:57:38;11.0;57.4
79356;SHT31;68825;51.978;5.654;2024-03-29T03:00:08;11.0;57.2
79356;SHT31;68825;51.978;5.654;2024-03-29T03:02:39;11.0;57.6
79356;SHT31;68825;51.978;5.654;2024-03-29T03:05:09;11.0;57.3
79356;SHT31;68825;51.978;5.654;2024-03-29T03:07:37;11.0;57.6
79356;SHT31;68825;51.978;5.654;2024-03-29T03:10:22;11.0;57.2
79356;SHT31;68825;51.978;5.654;2024-03-29T03:13:07;11.1;57.3
79356;SHT31;68825;51.978;5.654;2024-03-29T03:15:35;11.1;57.3
79356;SHT31;68825;51.978;5.654;2024-03-29T03:18:04;11.1;57.6
79356;SHT31;68825;51.978;5.654;2024-03-29T03:20:34;11.1;57.3
79356;SHT31;68825;51.978;5.654;2024-03-29T03:23:04;11.1;57.3
79356;SHT31;68825;51.978;5.654;2024-03-29T03:25:36;11.1;57.4
79356;SHT31;68825;51.978;5.654;2024-03-29T03:28:11;11.1;57.4
79356;SHT31;68825;51.978;5.654;2024-03-29T03:30:41;11.2;57.5
79356;SHT31;68825;51.978;5.654;2024-03-29T03:33:10;11.2;57.4
79356;SHT31;68825;51.978;5.654;2024-03-29T03:35:41;11.2;57.2
79356;SHT31;68825;51.978;5.654;2024-03-29T03:38:10;11.2;57.0
79356;SHT31;68825;51.978;5.654;2024-03-29T03:40:39;11.2;57.0
79356;SHT31;68825;51.978;5.654;2024-03-29T03:43:08;11.2;56.9
79356;SHT31;68825;51.978;5.654;2024-03-29T03:45:38;11.2;56.8
79356;SHT31;68825;51.978;5.654;2024-03-29T03:48:10;11.3;56.9
79356;SHT31;68825;51.978;5.654;2024-03-29T03:50:39;11.3;57.1
79356;SHT31;68825;51.978;5.654;2024-03-29T03:53:08;11.3;57.3
79356;SHT31;68825;51.978;5.654;2024-03-29T03:55:37;11.3;57.1
79356;SHT31;68825;51.978;5.654;2024-03-29T03:58:06;11.3;57.0
79356;SHT31;68825;51.978;5.654;2024-03-29T04:00:34;11.4;57.0
79356;SHT31;68825;51.978;5.654;2024-03-29T04:03:07;11.4;57.1
79356;SHT31;68825;51.978;5.654;2024-03-29T04:05:36;11.4;57.4
79356;SHT31;68825;51.978;5.654;2024-03-29T04:08:05;11.4;57.5
79356;SHT31;68825;51.978;5.654;2024-03-29T04:10:37;11.5;57.5
79356;SHT31;68825;51.978;5.654;2024-03-29T04:13:08;11.5;57.8
79356;SHT31;68825;51.978;5.654;2024-03-29T04:15:36;11.5;57.8
79356;SHT31;68825;51.978;5.654;2024-03-29T04:18:06;11.5;58.2
79356;SHT31;68825;51.978;5.654;2024-03-29T04:20:34;11.5;58.4
79356;SHT31;68825;51.978;5.654;2024-03-29T04:23:05;11.6;59.2
79356;SHT31;68825;51.978;5.654;2024-03-29T04:25:34;11.6;59.7
79356;SHT31;68825;51.978;5.654;2024-03-29T04:28:02;11.6;60.6
79356;SHT31;68825;51.978;5.654;2024-03-29T04:30:31;11.6;60.4
79356;SHT31;68825;51.978;5.654;2024-03-29T04:33:00;11.5;60.3
79356;SHT31;68825;51.978;5.654;2024-03-29T04:35:28;11.5;60.2
79356;SHT31;68825;51.978;5.654;2024-03-29T04:37:57;11.5;60.4
79356;SHT31;68825;51.978;5.654;2024-03-29T04:40:25;11.5;60.8
79356;SHT31;68825;51.978;5.654;2024-03-29T04:42:54;11.5;61.3
79356;SHT31;68825;51.978;5.654;2024-03-29T04:45:22;11.5;61.9
79356;SHT31;68825;51.978;5.654;2024-03-29T04:47:51;11.4;62.9
79356;SHT31;68825;51.978;5.654;2024-03-29T04:50:19;11.4;63.0
79356;SHT31;68825;51.978;5.654;2024-03-29T04:52:48;11.4;63.7
79356;SHT31;68825;51.978;5.654;2024-03-29T04:55:17;11.4;63.8
79356;SHT31;68825;51.978;5.654;2024-03-29T04:57:45;11.4;63.9
79356;SHT31;68825;51.978;5.654;2024-03-29T05:00:14;11.4;64.7
79356;SHT31;68825;51.978;5.654;2024-03-29T05:02:43;11.4;64.7
79356;SHT31;68825;51.978;5.654;2024-03-29T05:05:11;11.4;64.8
79356;SHT31;68825;51.978;5.654;2024-03-29T05:07:40;11.3;64.9
79356;SHT31;68825;51.978;5.654;2024-03-29T05:10:11;11.3;64.9
79356;SHT31;68825;51.978;5.654;2024-03-29T05:12:39;11.3;65.8
79356;SHT31;68825;51.978;5.654;2024-03-29T05:15:09;11.3;65.8
79356;SHT31;68825;51.978;5.654;2024-03-29T05:17:38;11.3;66.3
79356;SHT31;68825;51.978;5.654;2024-03-29T05:20:08;11.3;66.8
79356;SHT31;68825;51.978;5.654;2024-03-29T05:22:37;11.3;66.7
79356;SHT31;68825;51.978;5.654;2024-03-29T05:25:08;11.2;66.9
79356;SHT31;68825;51.978;5.654;2024-03-29T05:27:37;11.2;67.7
79356;SHT31;68825;51.978;5.654;2024-03-29T05:30:06;11.2;67.4
79356;SHT31;68825;51.978;5.654;2024-03-29T05:32:36;11.2;67.7
79356;SHT31;68825;51.978;5.654;2024-03-29T05:35:05;11.2;67.7
79356;SHT31;68825;51.978;5.654;2024-03-29T05:37:35;11.2;68.4
79356;SHT31;68825;51.978;5.654;2024-03-29T05:40:05;11.2;68.7
79356;SHT31;68825;51.978;5.654;2024-03-29T05:42:34;11.1;68.5
79356;SHT31;68825;51.978;5.654;2024-03-29T05:45:05;11.1;68.8
79356;SHT31;68825;51.978;5.654;2024-03-29T05:47:34;11.1;68.6
79356;SHT31;68825;51.978;5.654;2024-03-29T05:50:05;11.1;68.7
79356;SHT31;68825;51.978;5.654;2024-03-29T05:52:34;11.1;68.9
79356;SHT31;68825;51.978;5.654;2024-03-29T05:55:03;11.1;68.9
79356;SHT31;68825;51.978;5.654;2024-03-29T05:57:34;11.1;69.1
79356;SHT31;68825;51.978;5.654;2024-03-29T06:00:07;11.1;69.2
79356;SHT31;68825;51.978;5.654;2024-03-29T06:02:37;11.1;69.7
79356;SHT31;68825;51.978;5.654;2024-03-29T06:05:07;11.1;69.7
79356;SHT31;68825;51.978;5.654;2024-03-29T06:07:36;11.1;69.5
79356;SHT31;68825;51.978;5.654;2024-03-29T06:10:05;11.1;69.8
79356;SHT31;68825;51.978;5.654;2024-03-29T06:12:35;11.1;69.7
79356;SHT31;68825;51.978;5.654;2024-03-29T06:15:05;11.1;69.8
79356;SHT31;68825;51.978;5.654;2024-03-29T06:19:49;11.1;69.8
79356;SHT31;68825;51.978;5.654;2024-03-29T06:22:21;11.1;70.5
79356;SHT31;68825;51.978;5.654;2024-03-29T06:24:50;11.0;70.6
79356;SHT31;68825;51.978;5.654;2024-03-29T06:27:20;11.0;70.4
79356;SHT31;68825;51.978;5.654;2024-03-29T06:29:50;11.0;71.0
79356;SHT31;68825;51.978;5.654;2024-03-29T06:32:18;11.0;71.6
79356;SHT31;68825;51.978;5.654;2024-03-29T06:34:47;11.0;71.7
79356;SHT31;68825;51.978;5.654;2024-03-29T06:37:18;11.0;71.7
79356;SHT31;68825;51.978;5.654;2024-03-29T06:39:48;11.0;72.1
79356;SHT31;68825;51.978;5.654;2024-03-29T06:42:17;11.0;72.4
79356;SHT31;68825;51.978;5.654;2024-03-29T06:44:47;11.0;71.7
79356;SHT31;68825;51.978;5.654;2024-03-29T06:47:15;11.1;72.1
79356;SHT31;68825;51.978;5.654;2024-03-29T06:49:44;11.1;72.1
79356;SHT31;68825;51.978;5.654;2024-03-29T06:52:13;11.1;71.9
79356;SHT31;68825;51.978;5.654;2024-03-29T06:54:42;11.1;72.4
79356;SHT31;68825;51.978;5.654;2024-03-29T06:57:10;11.1;72.2
79356;SHT31;68825;51.978;5.654;2024-03-29T06:59:41;11.1;72.5
79356;SHT31;68825;51.978;5.654;2024-03-29T07:02:10;11.0;72.7
79356;SHT31;68825;51.978;5.654;2024-03-29T07:04:38;11.0;72.6
79356;SHT31;68825;51.978;5.654;2024-03-29T07:07:07;11.0;72.8
79356;SHT31;68825;51.978;5.654;2024-03-29T07:09:36;11.0;73.0
79356;SHT31;68825;51.978;5.654;2024-03-29T07:12:05;11.0;73.3
79356;SHT31;68825;51.978;5.654;2024-03-29T07:14:33;11.0;73.0
79356;SHT31;68825;51.978;5.654;2024-03-29T07:17:02;11.0;73.3
79356;SHT31;68825;51.978;5.654;2024-03-29T07:19:33;11.0;73.1
79356;SHT31;68825;51.978;5.654;2024-03-29T07:22:03;11.0;73.4
79356;SHT31;68825;51.978;5.654;2024-03-29T07:24:32;11.0;73.5
79356;SHT31;68825;51.978;5.654;2024-03-29T07:27:00;11.0;73.5
79356;SHT31;68825;51.978;5.654;2024-03-29T07:29:29;11.0;73.7
79356;SHT31;68825;51.978;5.654;2024-03-29T07:32:00;11.0;74.0
79356;SHT31;68825;51.978;5.654;2024-03-29T07:34:28;11.0;73.8
79356;SHT31;68825;51.978;5.654;2024-03-29T07:36:57;11.0;73.5
79356;SHT31;68825;51.978;5.654;2024-03-29T07:39:26;11.0;73.8
79356;SHT31;68825;51.978;5.654;2024-03-29T07:41:55;11.0;74.1
79356;SHT31;68825;51.978;5.654;2024-03-29T07:44:24;11.0;74.0
79356;SHT31;68825;51.978;5.654;2024-03-29T07:46:52;11.0;74.0
79356;SHT31;68825;51.978;5.654;2024-03-29T07:49:21;11.0;74.0
79356;SHT31;68825;51.978;5.654;2024-03-29T07:51:49;11.0;74.2
79356;SHT31;68825;51.978;5.654;2024-03-29T07:54:18;11.0;74.3
79356;SHT31;68825;51.978;5.654;2024-03-29T07:56:47;11.1;74.4
79356;SHT31;68825;51.978;5.654;2024-03-29T07:59:15;11.1;74.3
79356;SHT31;68825;51.978;5.654;2024-03-29T08:01:46;11.1;74.3
79356;SHT31;68825;51.978;5.654;2024-03-29T08:04:14;11.1;74.4
79356;SHT31;68825;51.978;5.654;2024-03-29T08:06:43;11.1;74.2
79356;SHT31;68825;51.978;5.654;2024-03-29T08:09:11;11.2;74.5
79356;SHT31;68825;51.978;5.654;2024-03-29T08:11:41;11.2;73.8
79356;SHT31;68825;51.978;5.654;2024-03-29T08:14:10;11.2;74.0
79356;SHT31;68825;51.978;5.654;2024-03-29T08:16:38;11.2;73.7
79356;SHT31;68825;51.978;5.654;2024-03-29T08:19:07;11.2;73.8
79356;SHT31;68825;51.978;5.654;2024-03-29T08:21:35;11.2;73.7
79356;SHT31;68825;51.978;5.654;2024-03-29T08:24:04;11.2;74.0
79356;SHT31;68825;51.978;5.654;2024-03-29T08:26:35;11.2;74.0
79356;SHT31;68825;51.978;5.654;2024-03-29T08:29:03;11.2;74.0
79356;SHT31;68825;51.978;5.654;2024-03-29T08:31:32;11.3;73.9
79356;SHT31;68825;51.978;5.654;2024-03-29T08:34:00;11.3;74.3
79356;SHT31;68825;51.978;5.654;2024-03-29T08:36:29;11.3;74.2
79356;SHT31;68825;51.978;5.654;2024-03-29T08:38:57;11.3;74.2
79356;SHT31;68825;51.978;5.654;2024-03-29T08:41:26;11.3;74.4
79356;SHT31;68825;51.978;5.654;2024-03-29T08:43:54;11.3;73.9
79356;SHT31;68825;51.978;5.654;2024-03-29T08:46:25;11.3;74.3
79356;SHT31;68825;51.978;5.654;2024-03-29T08:48:54;11.4;74.4
79356;SHT31;68825;51.978;5.654;2024-03-29T08:51:24;11.4;73.9
79356;SHT31;68825;51.978;5.654;2024-03-29T08:53:52;11.4;74.2
79356;SHT31;68825;51.978;5.654;2024-03-29T08:56:21;11.4;74.5
79356;SHT31;68825;51.978;5.654;2024-03-29T08:58:49;11.5;74.6
79356;SHT31;68825;51.978;5.654;2024-03-29T09:01:18;11.5;74.0
79356;SHT31;68825;51.978;5.654;2024-03-29T09:03:46;11.6;75.0
79356;SHT31;68825;51.978;5.654;2024-03-29T09:06:15;11.6;73.1
79356;SHT31;68825;51.978;5.654;2024-03-29T09:08:43;11.7;73.5
79356;SHT31;68825;51.978;5.654;2024-03-29T09:11:12;11.7;72.8
79356;SHT31;68825;51.978;5.654;2024-03-29T09:13:40;11.8;71.8
79356;SHT31;68825;51.978;5.654;2024-03-29T09:16:09;11.8;72.7
79356;SHT31;68825;51.978;5.654;2024-03-29T09:18:37;11.8;72.6
79356;SHT31;68825;51.978;5.654;2024-03-29T09:21:06;11.9;72.3
79356;SHT31;68825;51.978;5.654;2024-03-29T09:23:38;11.9;72.4
79356;SHT31;68825;51.978;5.654;2024-03-29T09:26:11;11.9;72.8
79356;SHT31;68825;51.978;5.654;2024-03-29T09:28:45;12.0;72.5
79356;SHT31;68825;51.978;5.654;2024-03-29T09:31:13;12.0;72.8
79356;SHT31;68825;51.978;5.654;2024-03-29T09:33:42;12.1;72.4
79356;SHT31;68825;51.978;5.654;2024-03-29T09:36:13;12.1;73.3
79356;SHT31;68825;51.978;5.654;2024-03-29T09:38:42;12.2;72.2
79356;SHT31;68825;51.978;5.654;2024-03-29T09:41:14;12.2;72.3
79356;SHT31;68825;51.978;5.654;2024-03-29T09:43:44;12.3;72.7
79356;SHT31;68825;51.978;5.654;2024-03-29T09:46:14;12.4;72.3
79356;SHT31;68825;51.978;5.654;2024-03-29T09:48:44;12.4;71.9
79356;SHT31;68825;51.978;5.654;2024-03-29T09:51:15;12.6;72.0
79356;SHT31;68825;51.978;5.654;2024-03-29T09:53:44;12.6;72.0
79356;SHT31;68825;51.978;5.654;2024-03-29T09:56:16;12.7;70.4
79356;SHT31;68825;51.978;5.654;2024-03-29T09:58:45;12.8;68.3
79356;SHT31;68825;51.978;5.654;2024-03-29T10:01:14;12.9;69.0
79356;SHT31;68825;51.978;5.654;2024-03-29T10:03:45;13.0;69.7
79356;SHT31;68825;51.978;5.654;2024-03-29T10:06:18;13.0;69.0
79356;SHT31;68825;51.978;5.654;2024-03-29T10:08:47;13.1;69.2
79356;SHT31;68825;51.978;5.654;2024-03-29T10:11:18;13.1;69.2
79356;SHT31;68825;51.978;5.654;2024-03-29T10:13:49;13.2;68.6
79356;SHT31;68825;51.978;5.654;2024-03-29T10:16:20;13.2;68.0
79356;SHT31;68825;51.978;5.654;2024-03-29T10:18:50;13.3;67.9
79356;SHT31;68825;51.978;5.654;2024-03-29T10:21:26;13.3;68.1
79356;SHT31;68825;51.978;5.654;2024-03-29T10:23:55;13.3;68.2
79356;SHT31;68825;51.978;5.654;2024-03-29T10:26:26;13.3;68.2
79356;SHT31;68825;51.978;5.654;2024-03-29T10:28:55;13.4;67.3
79356;SHT31;68825;51.978;5.654;2024-03-29T10:31:23;13.4;66.8
79356;SHT31;68825;51.978;5.654;2024-03-29T10:33:52;13.4;67.0
79356;SHT31;68825;51.978;5.654;2024-03-29T10:36:21;13.4;66.7
79356;SHT31;68825;51.978;5.654;2024-03-29T10:38:50;13.4;65.8
79356;SHT31;68825;51.978;5.654;2024-03-29T10:41:22;13.4;65.6
79356;SHT31;68825;51.978;5.654;2024-03-29T10:43:58;13.4;65.9
79356;SHT31;68825;51.978;5.654;2024-03-29T10:46:31;13.4;67.6
79356;SHT31;68825;51.978;5.654;2024-03-29T10:49:02;13.5;68.0
79356;SHT31;68825;51.978;5.654;2024-03-29T10:51:32;13.6;66.3
79356;SHT31;68825;51.978;5.654;2024-03-29T10:54:02;13.6;65.2
79356;SHT31;68825;51.978;5.654;2024-03-29T10:56:35;13.7;65.0
79356;SHT31;68825;51.978;5.654;2024-03-29T10:59:12;13.7;66.6
79356;SHT31;68825;51.978;5.654;2024-03-29T11:01:44;13.8;64.6
79356;SHT31;68825;51.978;5.654;2024-03-29T11:04:22;13.8;64.7
79356;SHT31;68825;51.978;5.654;2024-03-29T11:06:51;13.9;66.6
79356;SHT31;68825;51.978;5.654;2024-03-29T11:09:26;14.0;67.1
79356;SHT31;68825;51.978;5.654;2024-03-29T11:11:58;14.1;65.5
79356;SHT31;68825;51.978;5.654;2024-03-29T11:14:35;14.2;65.3
79356;SHT31;68825;51.978;5.654;2024-03-29T11:17:06;14.3;64.3
79356;SHT31;68825;51.978;5.654;2024-03-29T11:19:36;14.3;62.9
79356;SHT31;68825;51.978;5.654;2024-03-29T11:22:06;14.4;62.7
79356;SHT31;68825;51.978;5.654;2024-03-29T11:24:35;14.4;63.0
79356;SHT31;68825;51.978;5.654;2024-03-29T11:27:09;14.4;60.6
79356;SHT31;68825;51.978;5.654;2024-03-29T11:29:43;14.5;61.2
79356;SHT31;68825;51.978;5.654;2024-03-29T11:32:36;14.5;60.8
79356;SHT31;68825;51.978;5.654;2024-03-29T11:35:16;14.6;61.3
79356;SHT31;68825;51.978;5.654;2024-03-29T11:37:57;14.6;62.3
79356;SHT31;68825;51.978;5.654;2024-03-29T11:40:32;14.7;60.2
79356;SHT31;68825;51.978;5.654;2024-03-29T11:43:01;14.8;59.9
79356;SHT31;68825;51.978;5.654;2024-03-29T11:45:31;14.8;60.2
79356;SHT31;68825;51.978;5.654;2024-03-29T11:48:07;14.8;59.4
79356;SHT31;68825;51.978;5.654;2024-03-29T11:50:38;14.9;59.7
79356;SHT31;68825;51.978;5.654;2024-03-29T11:53:07;14.9;61.0
79356;SHT31;68825;51.978;5.654;2024-03-29T11:55:36;15.0;60.8
79356;SHT31;68825;51.978;5.654;2024-03-29T11:58:04;15.0;60.5
79356;SHT31;68825;51.978;5.654;2024-03-29T12:00:33;15.1;59.9
79356;SHT31;68825;51.978;5.654;2024-03-29T12:03:02;15.2;59.7
79356;SHT31;68825;51.978;5.654;2024-03-29T12:05:32;15.2;61.3
79356;SHT31;68825;51.978;5.654;2024-03-29T12:08:04;15.2;60.5
79356;SHT31;68825;51.978;5.654;2024-03-29T12:10:35;15.3;60.1
79356;SHT31;68825;51.978;5.654;2024-03-29T12:13:04;15.4;58.7
79356;SHT31;68825;51.978;5.654;2024-03-29T12:15:33;15.4;59.1
79356;SHT31;68825;51.978;5.654;2024-03-29T12:18:04;15.4;59.0
79356;SHT31;68825;51.978;5.654;2024-03-29T12:20:33;15.5;58.4
79356;SHT31;68825;51.978;5.654;2024-03-29T12:23:04;15.5;58.8
79356;SHT31;68825;51.978;5.654;2024-03-29T12:25:36;15.5;58.8
79356;SHT31;68825;51.978;5.654;2024-03-29T12:28:06;15.5;59.0
79356;SHT31;68825;51.978;5.654;2024-03-29T12:30:34;15.5;58.3
79356;SHT31;68825;51.978;5.654;2024-03-29T12:33:05;15.6;58.4
79356;SHT31;68825;51.978;5.654;2024-03-29T12:35:35;15.6;56.5
79356;SHT31;68825;51.978;5.654;2024-03-29T12:38:07;15.6;56.1
79356;SHT31;68825;51.978;5.654;2024-03-29T12:40:35;15.6;56.0
79356;SHT31;68825;51.978;5.654;2024-03-29T12:43:07;15.7;56.4
79356;SHT31;68825;51.978;5.654;2024-03-29T12:45:38;15.7;56.3
79356;SHT31;68825;51.978;5.654;2024-03-29T12:48:12;15.8;56.3
79356;SHT31;68825;51.978;5.654;2024-03-29T12:50:43;15.8;55.5
79356;SHT31;68825;51.978;5.654;2024-03-29T12:53:14;15.9;55.5
79356;SHT31;68825;51.978;5.654;2024-03-29T12:55:45;15.9;54.3
79356;SHT31;68825;51.978;5.654;2024-03-29T12:58:15;16.0;54.0
79356;SHT31;68825;51.978;5.654;2024-03-29T13:00:47;16.0;55.9
79356;SHT31;68825;51.978;5.654;2024-03-29T13:03:17;16.1;54.0
79356;SHT31;68825;51.978;5.654;2024-03-29T13:05:46;16.1;53.6
79356;SHT31;68825;51.978;5.654;2024-03-29T13:08:15;16.2;55.8
79356;SHT31;68825;51.978;5.654;2024-03-29T13:10:44;16.3;54.1
79356;SHT31;68825;51.978;5.654;2024-03-29T13:13:13;16.3;55.1
79356;SHT31;68825;51.978;5.654;2024-03-29T13:15:42;16.4;54.7
79356;SHT31;68825;51.978;5.654;2024-03-29T13:18:13;16.4;55.5
79356;SHT31;68825;51.978;5.654;2024-03-29T13:20:43;16.5;55.5
79356;SHT31;68825;51.978;5.654;2024-03-29T13:23:12;16.5;54.0
79356;SHT31;68825;51.978;5.654;2024-03-29T13:25:41;16.6;53.3
79356;SHT31;68825;51.978;5.654;2024-03-29T13:28:09;16.7;51.8
79356;SHT31;68825;51.978;5.654;2024-03-29T13:30:39;16.7;52.8
79356;SHT31;68825;51.978;5.654;2024-03-29T13:33:09;16.7;52.7
79356;SHT31;68825;51.978;5.654;2024-03-29T13:35:38;16.8;53.2
79356;SHT31;68825;51.978;5.654;2024-03-29T13:38:07;16.8;52.5
79356;SHT31;68825;51.978;5.654;2024-03-29T13:40:36;16.9;53.0
79356;SHT31;68825;51.978;5.654;2024-03-29T13:43:06;16.9;53.0
79356;SHT31;68825;51.978;5.654;2024-03-29T13:45:35;17.0;52.7
79356;SHT31;68825;51.978;5.654;2024-03-29T13:48:07;17.1;52.4
79356;SHT31;68825;51.978;5.654;2024-03-29T13:50:35;17.2;52.3
79356;SHT31;68825;51.978;5.654;2024-03-29T13:53:04;17.3;51.6
79356;SHT31;68825;51.978;5.654;2024-03-29T13:55:32;17.3;52.6
79356;SHT31;68825;51.978;5.654;2024-03-29T13:58:02;17.4;51.1
79356;SHT31;68825;51.978;5.654;2024-03-29T14:00:30;17.4;50.6
79356;SHT31;68825;51.978;5.654;2024-03-29T14:02:59;17.5;49.3
79356;SHT31;68825;51.978;5.654;2024-03-29T14:05:28;17.5;49.8
79356;SHT31;68825;51.978;5.654;2024-03-29T14:07:58;17.5;50.5
79356;SHT31;68825;51.978;5.654;2024-03-29T14:10:27;17.5;48.9
79356;SHT31;68825;51.978;5.654;2024-03-29T14:12:57;17.5;49.3
79356;SHT31;68825;51.978;5.654;2024-03-29T14:15:28;17.5;49.6
79356;SHT31;68825;51.978;5.654;2024-03-29T14:17:56;17.5;50.3
79356;SHT31;68825;51.978;5.654;2024-03-29T14:20:25;17.5;50.4
79356;SHT31;68825;51.978;5.654;2024-03-29T14:22:53;17.6;48.6
79356;SHT31;68825;51.978;5.654;2024-03-29T14:25:24;17.6;48.4
79356;SHT31;68825;51.978;5.654;2024-03-29T14:27:52;17.6;47.9
79356;SHT31;68825;51.978;5.654;2024-03-29T14:30:27;17.6;48.9
79356;SHT31;68825;51.978;5.654;2024-03-29T14:32:56;17.6;49.3
79356;SHT31;68825;51.978;5.654;2024-03-29T14:35:29;17.6;47.9
79356;SHT31;68825;51.978;5.654;2024-03-29T14:37:57;17.6;48.6
79356;SHT31;68825;51.978;5.654;2024-03-29T14:40:26;17.6;48.9
79356;SHT31;68825;51.978;5.654;2024-03-29T14:42:55;17.6;50.0
79356;SHT31;68825;51.978;5.654;2024-03-29T14:45:24;17.6;49.3
79356;SHT31;68825;51.978;5.654;2024-03-29T14:47:53;17.6;49.1
79356;SHT31;68825;51.978;5.654;2024-03-29T14:50:21;17.7;49.4
79356;SHT31;68825;51.978;5.654;2024-03-29T14:52:50;17.7;48.8
79356;SHT31;68825;51.978;5.654;2024-03-29T14:55:19;17.7;49.2
79356;SHT31;68825;51.978;5.654;2024-03-29T14:57:47;17.7;49.4
79356;SHT31;68825;51.978;5.654;2024-03-29T15:00:19;17.7;50.0
79356;SHT31;68825;51.978;5.654;2024-03-29T15:02:50;17.7;49.9
79356;SHT31;68825;51.978;5.654;2024-03-29T15:05:19;17.7;49.2
79356;SHT31;68825;51.978;5.654;2024-03-29T15:07:48;17.7;48.0
79356;SHT31;68825;51.978;5.654;2024-03-29T15:10:17;17.7;49.0
79356;SHT31;68825;51.978;5.654;2024-03-29T15:12:48;17.7;49.1
79356;SHT31;68825;51.978;5.654;2024-03-29T15:15:18;17.7;48.9
79356;SHT31;68825;51.978;5.654;2024-03-29T15:17:47;17.7;49.0
79356;SHT31;68825;51.978;5.654;2024-03-29T15:20:16;17.7;49.0
79356;SHT31;68825;51.978;5.654;2024-03-29T15:22:45;17.7;49.6
79356;SHT31;68825;51.978;5.654;2024-03-29T15:25:18;17.7;49.1
79356;SHT31;68825;51.978;5.654;2024-03-29T15:27:47;17.7;49.3
79356;SHT31;68825;51.978;5.654;2024-03-29T15:30:32;17.7;49.1
79356;SHT31;68825;51.978;5.654;2024-03-29T15:33:04;17.7;47.8
79356;SHT31;68825;51.978;5.654;2024-03-29T15:35:33;17.7;48.6
79356;SHT31;68825;51.978;5.654;2024-03-29T15:38:01;17.7;49.1
79356;SHT31;68825;51.978;5.654;2024-03-29T15:40:35;17.7;47.3
79356;SHT31;68825;51.978;5.654;2024-03-29T15:43:04;17.7;48.4
79356;SHT31;68825;51.978;5.654;2024-03-29T15:45:32;17.7;48.7
79356;SHT31;68825;51.978;5.654;2024-03-29T15:48:01;17.6;48.5
79356;SHT31;68825;51.978;5.654;2024-03-29T15:50:30;17.6;48.7
79356;SHT31;68825;51.978;5.654;2024-03-29T15:52:58;17.6;48.3
79356;SHT31;68825;51.978;5.654;2024-03-29T15:55:26;17.6;48.9
79356;SHT31;68825;51.978;5.654;2024-03-29T15:57:55;17.6;48.5
79356;SHT31;68825;51.978;5.654;2024-03-29T16:00:24;17.6;48.2
79356;SHT31;68825;51.978;5.654;2024-03-29T16:02:57;17.6;48.8
79356;SHT31;68825;51.978;5.654;2024-03-29T16:05:27;17.6;47.8
79356;SHT31;68825;51.978;5.654;2024-03-29T16:07:56;17.5;47.9
79356;SHT31;68825;51.978;5.654;2024-03-29T16:10:25;17.5;47.4
79356;SHT31;68825;51.978;5.654;2024-03-29T16:12:53;17.5;47.9
79356;SHT31;68825;51.978;5.654;2024-03-29T16:15:24;17.5;48.3
79356;SHT31;68825;51.978;5.654;2024-03-29T16:17:53;17.5;48.6
79356;SHT31;68825;51.978;5.654;2024-03-29T16:20:22;17.5;48.6